createdAt,value
2018-03-06T00:00:24.427Z,8.30
2018-03-06T00:01:30.945Z,7.70
2018-03-06T00:02:35.463Z,7.30
2018-03-06T00:03:41.975Z,7.60
2018-03-06T00:04:46.476Z,7.60
2018-03-06T00:05:51.963Z,7.70
2018-03-06T00:06:58.520Z,7.40
2018-03-06T00:08:02.997Z,7.40
2018-03-06T00:09:09.513Z,7.70
2018-03-06T00:10:14.022Z,7.60
2018-03-06T00:11:19.515Z,7.60
2018-03-06T00:12:26.045Z,7.60
2018-03-06T00:13:30.528Z,7.40
2018-03-06T00:14:37.063Z,7.60
2018-03-06T00:15:41.548Z,7.50
2018-03-06T00:16:47.144Z,7.30
2018-03-06T00:17:53.570Z,7.50
2018-03-06T00:18:58.066Z,7.70
2018-03-06T00:20:04.597Z,7.20
2018-03-06T00:21:09.088Z,8.20
2018-03-06T00:22:14.602Z,7.70
2018-03-06T00:23:21.103Z,7.40
2018-03-06T00:24:25.610Z,7.70
2018-03-06T00:25:32.119Z,7.40
2018-03-06T00:26:36.767Z,7.30
2018-03-06T00:27:42.145Z,7.60
2018-03-06T00:28:48.654Z,7.40
2018-03-06T00:29:53.152Z,7.70
2018-03-06T00:30:59.669Z,7.40
2018-03-06T00:32:04.163Z,8.20
2018-03-06T00:33:09.698Z,7.40
2018-03-06T00:34:16.185Z,7.60
2018-03-06T00:35:20.673Z,7.50
2018-03-06T00:36:27.199Z,7.70
2018-03-06T00:37:31.707Z,7.60
2018-03-06T00:38:37.197Z,7.30
2018-03-06T00:39:43.731Z,7.40
2018-03-06T00:40:48.246Z,7.50
2018-03-06T00:41:54.732Z,7.60
2018-03-06T00:42:59.248Z,7.50
2018-03-06T00:44:04.739Z,7.40
2018-03-06T00:45:11.258Z,7.80
2018-03-06T00:46:15.756Z,7.60
2018-03-06T00:47:22.288Z,8.00
2018-03-06T00:48:26.778Z,7.70
2018-03-06T00:49:32.296Z,7.50
2018-03-06T00:50:38.807Z,7.20
2018-03-06T00:51:43.293Z,7.50
2018-03-06T00:52:49.813Z,7.80
2018-03-06T00:53:54.345Z,7.70
2018-03-06T00:54:59.824Z,7.60
2018-03-06T00:56:06.347Z,7.60
2018-03-06T00:57:10.845Z,7.50
2018-03-06T00:58:17.352Z,7.70
2018-03-06T00:59:21.850Z,8.10
2018-03-06T01:00:27.368Z,8.10
2018-03-06T01:01:33.878Z,7.90
2018-03-06T01:02:38.367Z,8.20
2018-03-06T01:03:44.977Z,7.80
2018-03-06T01:04:49.385Z,8.20
2018-03-06T01:05:54.903Z,8.30
2018-03-06T01:07:01.404Z,8.40
2018-03-06T01:08:05.947Z,8.30
2018-03-06T01:09:12.432Z,8.60
2018-03-06T01:10:16.924Z,8.70
2018-03-06T01:11:22.432Z,8.60
2018-03-06T01:12:28.947Z,8.40
2018-03-06T01:13:33.443Z,8.50
2018-03-06T01:14:39.960Z,8.80
2018-03-06T01:15:44.469Z,8.70
2018-03-06T01:16:49.956Z,9.10
2018-03-06T01:17:56.486Z,9.20
2018-03-06T01:19:00.974Z,9.20
2018-03-06T01:20:07.506Z,9.00
2018-03-06T01:21:11.994Z,9.10
2018-03-06T01:22:17.516Z,8.70
2018-03-06T01:23:24.013Z,8.90
2018-03-06T01:24:28.515Z,9.20
2018-03-06T01:25:35.081Z,9.20
2018-03-06T01:26:39.539Z,8.80
2018-03-06T01:27:45.041Z,8.70
2018-03-06T01:28:51.543Z,8.50
2018-03-06T01:29:56.049Z,8.70
2018-03-06T01:31:02.571Z,8.90
2018-03-06T01:32:07.078Z,8.70
2018-03-06T01:33:12.569Z,8.20
2018-03-06T01:34:19.095Z,8.60
2018-03-06T01:35:23.588Z,9.40
2018-03-06T01:36:30.101Z,8.70
2018-03-06T01:37:34.624Z,9.70
2018-03-06T01:38:40.097Z,8.60
2018-03-06T01:39:46.616Z,9.10
2018-03-06T01:40:51.119Z,8.70
2018-03-06T01:41:57.634Z,9.40
2018-03-06T01:43:02.130Z,9.40
2018-03-06T01:44:07.653Z,8.90
2018-03-06T01:45:14.207Z,9.40
2018-03-06T01:46:18.666Z,9.10
2018-03-06T01:47:25.164Z,9.10
2018-03-06T01:48:29.679Z,8.90
2018-03-06T01:49:35.224Z,9.30
2018-03-06T01:50:41.689Z,9.10
2018-03-06T01:51:46.186Z,9.50
2018-03-06T01:52:52.699Z,9.30
2018-03-06T01:53:57.205Z,9.60
2018-03-06T01:55:02.711Z,9.00
2018-03-06T01:56:09.229Z,9.80
2018-03-06T01:57:13.733Z,9.40
2018-03-06T01:58:20.260Z,9.30
2018-03-06T01:59:24.748Z,9.40
2018-03-06T02:00:30.241Z,8.60
2018-03-06T02:01:36.766Z,8.70
2018-03-06T02:02:41.261Z,9.00
2018-03-06T02:03:47.780Z,9.50
2018-03-06T02:04:52.275Z,8.80
2018-03-06T02:05:57.801Z,9.50
2018-03-06T02:07:04.308Z,9.90
2018-03-06T02:08:08.794Z,10.30
2018-03-06T02:09:15.311Z,9.40
2018-03-06T02:10:19.806Z,9.00
2018-03-06T02:11:25.308Z,10.00
2018-03-06T02:12:31.841Z,10.00
2018-03-06T02:13:36.334Z,10.70
2018-03-06T02:14:42.936Z,10.30
2018-03-06T02:15:47.341Z,11.30
2018-03-06T02:16:52.871Z,11.10
2018-03-06T02:17:59.381Z,10.40
2018-03-06T02:19:03.861Z,10.90
2018-03-06T02:20:10.387Z,11.10
2018-03-06T02:21:14.893Z,10.90
2018-03-06T02:22:20.398Z,11.20
2018-03-06T02:23:26.909Z,10.10
2018-03-06T02:24:31.416Z,11.30
2018-03-06T02:25:37.953Z,10.90
2018-03-06T02:26:42.433Z,11.20
2018-03-06T02:27:47.935Z,11.20
2018-03-06T02:28:54.444Z,10.70
2018-03-06T02:29:58.937Z,10.10
2018-03-06T02:31:05.514Z,9.90
2018-03-06T02:32:09.993Z,10.00
2018-03-06T02:33:15.458Z,9.50
2018-03-06T02:34:21.985Z,9.50
2018-03-06T02:35:26.471Z,9.70
2018-03-06T02:36:33.002Z,9.70
2018-03-06T02:37:37.495Z,10.50
2018-03-06T02:38:42.992Z,10.00
2018-03-06T02:39:49.508Z,10.40
2018-03-06T02:40:54.015Z,9.40
2018-03-06T02:42:00.525Z,9.10
2018-03-06T02:43:05.025Z,9.80
2018-03-06T02:44:10.538Z,9.50
2018-03-06T02:45:17.053Z,10.20
2018-03-06T02:46:21.565Z,10.60
2018-03-06T02:47:28.064Z,10.40
2018-03-06T02:48:32.557Z,10.40
2018-03-06T02:49:38.064Z,10.00
2018-03-06T02:50:44.583Z,11.10
2018-03-06T02:51:49.081Z,10.20
2018-03-06T02:52:55.596Z,11.50
2018-03-06T02:54:00.098Z,11.60
2018-03-06T02:55:05.611Z,11.20
2018-03-06T02:56:12.132Z,10.90
2018-03-06T02:57:16.618Z,11.10
2018-03-06T02:58:23.145Z,10.90
2018-03-06T02:59:27.623Z,11.80
2018-03-06T03:00:33.142Z,11.50
2018-03-06T03:01:39.652Z,11.50
2018-03-06T03:02:44.156Z,11.10
2018-03-06T03:03:50.664Z,11.60
2018-03-06T03:04:55.184Z,11.50
2018-03-06T03:06:00.668Z,12.00
2018-03-06T03:07:07.203Z,12.40
2018-03-06T03:08:11.700Z,12.60
2018-03-06T03:09:18.219Z,12.70
2018-03-06T03:10:22.704Z,11.80
2018-03-06T03:11:28.214Z,12.40
2018-03-06T03:12:34.727Z,12.70
2018-03-06T03:13:39.231Z,12.50
2018-03-06T03:14:45.734Z,12.70
2018-03-06T03:15:50.251Z,12.30
2018-03-06T03:16:55.749Z,12.70
2018-03-06T03:18:02.254Z,12.70
2018-03-06T03:19:06.762Z,12.10
2018-03-06T03:20:13.276Z,11.90
2018-03-06T03:21:17.786Z,12.40
2018-03-06T03:22:23.280Z,13.10
2018-03-06T03:23:29.809Z,12.20
2018-03-06T03:24:34.292Z,12.40
2018-03-06T03:25:40.816Z,13.10
2018-03-06T03:26:45.303Z,12.30
2018-03-06T03:27:50.816Z,12.90
2018-03-06T03:28:57.326Z,12.70
2018-03-06T03:30:01.833Z,12.70
2018-03-06T03:31:08.346Z,13.20
2018-03-06T03:32:12.846Z,13.50
2018-03-06T03:33:18.344Z,13.60
2018-03-06T03:34:24.870Z,12.30
2018-03-06T03:35:29.375Z,13.50
2018-03-06T03:36:35.872Z,12.80
2018-03-06T03:37:40.373Z,13.00
2018-03-06T03:38:45.879Z,12.90
2018-03-06T03:39:52.400Z,12.40
2018-03-06T03:40:56.903Z,12.10
2018-03-06T03:42:03.424Z,12.50
2018-03-06T03:43:07.915Z,12.20
2018-03-06T03:44:13.418Z,12.00
2018-03-06T03:45:19.950Z,12.10
2018-03-06T03:46:24.434Z,12.40
2018-03-06T03:47:30.951Z,11.60
2018-03-06T03:48:35.442Z,12.60
2018-03-06T03:49:40.953Z,11.80
2018-03-06T03:50:47.480Z,11.80
2018-03-06T03:51:51.967Z,13.30
2018-03-06T03:52:58.480Z,12.40
2018-03-06T03:54:02.978Z,12.60
2018-03-06T03:55:08.483Z,13.60
2018-03-06T03:56:15.002Z,12.70
2018-03-06T03:57:19.493Z,13.00
2018-03-06T03:58:26.034Z,13.00
2018-03-06T03:59:30.515Z,13.10
2018-03-06T04:00:36.018Z,13.00
2018-03-06T04:01:42.548Z,13.40
2018-03-06T04:02:47.030Z,13.50
2018-03-06T04:03:53.565Z,13.80
2018-03-06T04:04:58.049Z,13.20
2018-03-06T04:06:03.548Z,13.40
2018-03-06T04:07:10.071Z,13.00
2018-03-06T04:08:14.566Z,12.90
2018-03-06T04:09:21.087Z,12.90
2018-03-06T04:10:25.577Z,12.60
2018-03-06T04:11:31.078Z,12.10
2018-03-06T04:12:37.608Z,12.70
2018-03-06T04:13:42.098Z,13.60
2018-03-06T04:14:48.620Z,12.90
2018-03-06T04:15:53.110Z,13.20
2018-03-06T04:16:58.619Z,13.60
2018-03-06T04:18:05.142Z,12.80
2018-03-06T04:19:09.630Z,12.40
2018-03-06T04:20:16.148Z,13.70
2018-03-06T04:21:20.646Z,13.40
2018-03-06T04:22:26.151Z,13.10
2018-03-06T04:23:32.679Z,13.20
2018-03-06T04:24:37.165Z,13.80
2018-03-06T04:25:43.687Z,13.30
2018-03-06T04:26:48.181Z,12.80
2018-03-06T04:27:53.694Z,13.20
2018-03-06T04:29:00.218Z,12.30
2018-03-06T04:30:04.699Z,12.60
2018-03-06T04:31:11.222Z,13.30
2018-03-06T04:32:15.713Z,13.50
2018-03-06T04:33:21.220Z,12.90
2018-03-06T04:34:27.740Z,13.10
2018-03-06T04:35:32.240Z,12.70
2018-03-06T04:36:38.745Z,13.00
2018-03-06T04:37:43.240Z,13.30
2018-03-06T04:38:48.764Z,13.10
2018-03-06T04:39:55.268Z,12.90
2018-03-06T04:40:59.765Z,12.40
2018-03-06T04:42:06.290Z,13.80
2018-03-06T04:43:10.784Z,13.40
2018-03-06T04:44:16.289Z,12.20
2018-03-06T04:45:22.820Z,13.00
2018-03-06T04:46:27.303Z,12.50
2018-03-06T04:47:33.819Z,12.70
2018-03-06T04:48:38.311Z,12.70
2018-03-06T04:49:43.836Z,13.50
2018-03-06T04:50:50.332Z,13.60
2018-03-06T04:51:54.844Z,13.40
2018-03-06T04:53:01.351Z,13.80
2018-03-06T04:54:05.859Z,13.40
2018-03-06T04:55:11.355Z,13.80
2018-03-06T04:56:17.875Z,13.30
2018-03-06T04:57:22.371Z,13.50
2018-03-06T04:58:28.882Z,14.60
2018-03-06T04:59:33.368Z,14.20
2018-03-06T05:00:38.884Z,13.50
2018-03-06T05:01:45.391Z,13.70
2018-03-06T05:02:49.901Z,13.10
2018-03-06T05:03:56.414Z,13.60
2018-03-06T05:05:00.911Z,13.20
2018-03-06T05:06:06.412Z,12.70
2018-03-06T05:07:12.955Z,12.60
2018-03-06T05:08:17.424Z,12.80
2018-03-06T05:09:23.940Z,13.20
2018-03-06T05:10:28.449Z,12.20
2018-03-06T05:11:33.955Z,12.80
2018-03-06T05:12:40.473Z,12.70
2018-03-06T05:13:44.955Z,14.00
2018-03-06T05:14:51.478Z,13.00
2018-03-06T05:15:55.989Z,13.00
2018-03-06T05:17:01.476Z,13.10
2018-03-06T05:18:07.997Z,13.70
2018-03-06T05:19:12.494Z,13.80
2018-03-06T05:20:19.011Z,13.80
2018-03-06T05:21:23.515Z,14.60
2018-03-06T05:22:29.016Z,13.00
2018-03-06T05:23:35.570Z,13.50
2018-03-06T05:24:40.075Z,12.50
2018-03-06T05:25:46.543Z,12.60
2018-03-06T05:26:51.049Z,12.40
2018-03-06T05:27:56.572Z,11.80
2018-03-06T05:29:03.073Z,11.90
2018-03-06T05:30:07.557Z,12.00
2018-03-06T05:31:14.086Z,11.80
2018-03-06T05:32:18.566Z,12.10
2018-03-06T05:33:24.084Z,12.20
2018-03-06T05:34:30.585Z,12.50
2018-03-06T05:35:35.108Z,11.30
2018-03-06T05:36:41.611Z,12.30
2018-03-06T05:37:46.095Z,11.40
2018-03-06T05:38:51.609Z,11.70
2018-03-06T05:39:58.135Z,12.00
2018-03-06T05:41:02.617Z,12.30
2018-03-06T05:42:09.148Z,12.30
2018-03-06T05:43:13.624Z,11.70
2018-03-06T05:44:19.155Z,11.70
2018-03-06T05:45:25.659Z,11.70
2018-03-06T05:46:30.155Z,11.90
2018-03-06T05:47:36.686Z,12.10
2018-03-06T05:48:41.171Z,11.80
2018-03-06T05:49:46.661Z,13.00
2018-03-06T05:50:53.191Z,13.20
2018-03-06T05:51:57.683Z,13.00
2018-03-06T05:53:04.201Z,13.30
2018-03-06T05:54:08.699Z,13.20
2018-03-06T05:55:14.199Z,13.10
2018-03-06T05:56:20.720Z,13.00
2018-03-06T05:57:25.223Z,14.00
2018-03-06T05:58:31.730Z,14.10
2018-03-06T05:59:36.229Z,13.80
2018-03-06T06:00:41.737Z,13.30
2018-03-06T06:01:48.247Z,13.60
2018-03-06T06:02:52.748Z,12.10
2018-03-06T06:03:59.262Z,12.40
2018-03-06T06:05:03.763Z,12.00
2018-03-06T06:06:09.270Z,12.00
2018-03-06T06:07:15.784Z,16.10
2018-03-06T06:08:20.286Z,11.70
2018-03-06T06:09:26.838Z,11.40
2018-03-06T06:10:31.301Z,12.20
2018-03-06T06:11:36.812Z,10.80
2018-03-06T06:12:43.340Z,11.30
2018-03-06T06:13:47.916Z,10.70
2018-03-06T06:14:54.334Z,10.50
2018-03-06T06:15:58.836Z,11.90
2018-03-06T06:17:04.339Z,11.50
2018-03-06T06:18:10.845Z,12.20
2018-03-06T06:19:15.354Z,11.80
2018-03-06T06:20:21.867Z,11.90
2018-03-06T06:21:26.362Z,12.20
2018-03-06T06:22:31.868Z,11.60
2018-03-06T06:23:38.383Z,11.90
2018-03-06T06:24:42.883Z,13.00
2018-03-06T06:25:49.396Z,12.50
2018-03-06T06:26:53.898Z,11.80
2018-03-06T06:27:59.399Z,12.50
2018-03-06T06:29:05.924Z,12.60
2018-03-06T06:30:10.429Z,11.70
2018-03-06T06:31:16.936Z,11.40
2018-03-06T06:32:21.424Z,11.00
2018-03-06T06:33:26.935Z,12.00
2018-03-06T06:34:33.454Z,12.00
2018-03-06T06:35:37.949Z,11.40
2018-03-06T06:36:44.464Z,11.30
2018-03-06T06:37:48.955Z,11.80
2018-03-06T06:38:54.477Z,11.10
2018-03-06T06:40:00.984Z,11.80
2018-03-06T06:41:05.488Z,10.90
2018-03-06T06:42:12.003Z,11.10
2018-03-06T06:43:16.495Z,11.20
2018-03-06T06:44:22.003Z,11.40
2018-03-06T06:45:28.524Z,11.70
2018-03-06T06:46:33.011Z,11.30
2018-03-06T06:47:39.526Z,11.70
2018-03-06T06:48:44.034Z,11.80
2018-03-06T06:49:49.533Z,11.20
2018-03-06T06:50:56.063Z,12.00
2018-03-06T06:52:00.571Z,12.20
2018-03-06T06:53:07.071Z,11.90
2018-03-06T06:54:11.578Z,12.40
2018-03-06T06:55:17.083Z,13.40
2018-03-06T06:56:23.591Z,12.40
2018-03-06T06:57:28.083Z,13.00
2018-03-06T06:58:34.600Z,12.30
2018-03-06T06:59:39.118Z,12.40
2018-03-06T07:00:44.611Z,12.30
2018-03-06T07:01:51.153Z,12.80
2018-03-06T07:02:55.620Z,12.80
2018-03-06T07:04:02.205Z,12.90
2018-03-06T07:05:06.642Z,12.50
2018-03-06T07:06:12.151Z,12.70
2018-03-06T07:07:18.669Z,12.60
2018-03-06T07:08:23.155Z,13.20
2018-03-06T07:09:29.671Z,12.80
2018-03-06T07:10:34.174Z,13.10
2018-03-06T07:11:39.669Z,12.90
2018-03-06T07:12:46.194Z,13.20
2018-03-06T07:13:50.688Z,13.00
2018-03-06T07:14:57.215Z,13.10
2018-03-06T07:16:01.707Z,12.70
2018-03-06T07:17:07.210Z,13.30
2018-03-06T07:18:13.740Z,12.90
2018-03-06T07:19:18.225Z,12.30
2018-03-06T07:20:24.761Z,13.80
2018-03-06T07:21:29.245Z,13.20
2018-03-06T07:22:34.748Z,13.90
2018-03-06T07:23:41.298Z,13.80
2018-03-06T07:24:45.766Z,13.90
2018-03-06T07:25:52.282Z,14.40
2018-03-06T07:26:56.774Z,14.30
2018-03-06T07:28:02.302Z,15.80
2018-03-06T07:29:08.811Z,15.70
2018-03-06T07:30:13.304Z,16.40
2018-03-06T07:31:19.855Z,16.20
2018-03-06T07:32:24.311Z,15.60
2018-03-06T07:33:29.833Z,16.20
2018-03-06T07:34:36.348Z,16.80
2018-03-06T07:35:40.856Z,17.70
2018-03-06T07:36:47.363Z,17.30
2018-03-06T07:37:51.945Z,17.40
2018-03-06T07:38:57.361Z,18.20
2018-03-06T07:40:03.881Z,17.70
2018-03-06T07:41:08.374Z,17.80
2018-03-06T07:42:14.899Z,17.90
2018-03-06T07:43:19.389Z,16.70
2018-03-06T07:44:24.906Z,18.10
2018-03-06T07:45:31.420Z,18.50
2018-03-06T07:46:35.910Z,17.10
2018-03-06T07:47:42.431Z,17.90
2018-03-06T07:48:46.930Z,18.40
2018-03-06T07:49:52.439Z,19.00
2018-03-06T07:50:58.952Z,19.60
2018-03-06T07:52:03.459Z,20.10
2018-03-06T07:53:09.975Z,20.70
2018-03-06T07:54:14.475Z,20.70
2018-03-06T07:55:20.005Z,21.20
2018-03-06T07:56:26.495Z,19.60
2018-03-06T07:57:31.007Z,21.20
2018-03-06T07:58:37.525Z,20.80
2018-03-06T07:59:42.027Z,20.80
2018-03-06T08:00:47.513Z,19.90
2018-03-06T08:01:54.034Z,19.50
2018-03-06T08:02:58.542Z,18.80
2018-03-06T08:04:05.063Z,16.70
2018-03-06T08:05:09.557Z,16.70
2018-03-06T08:06:15.070Z,15.60
2018-03-06T08:07:21.590Z,15.30
2018-03-06T08:08:26.087Z,15.20
2018-03-06T08:09:32.611Z,14.60
2018-03-06T08:10:37.118Z,15.40
2018-03-06T08:11:42.611Z,15.30
2018-03-06T08:12:49.136Z,15.10
2018-03-06T08:13:53.648Z,15.50
2018-03-06T08:15:00.154Z,14.60
2018-03-06T08:16:04.665Z,16.00
2018-03-06T08:17:10.183Z,16.90
2018-03-06T08:18:16.678Z,15.20
2018-03-06T08:19:21.185Z,15.80
2018-03-06T08:20:27.691Z,16.80
2018-03-06T08:21:32.199Z,15.40
2018-03-06T08:22:37.721Z,16.30
2018-03-06T08:23:44.233Z,16.80
2018-03-06T08:24:48.730Z,17.30
2018-03-06T08:25:55.252Z,17.40
2018-03-06T08:26:59.763Z,18.20
2018-03-06T08:28:05.258Z,20.60
2018-03-06T08:29:11.804Z,18.10
2018-03-06T08:30:16.348Z,17.90
2018-03-06T08:31:22.801Z,19.90
2018-03-06T08:32:27.317Z,19.50
2018-03-06T08:33:32.817Z,17.50
2018-03-06T08:34:39.332Z,21.00
2018-03-06T08:35:43.841Z,18.90
2018-03-06T08:36:50.354Z,20.50
2018-03-06T08:37:54.846Z,20.00
2018-03-06T08:39:00.370Z,20.90
2018-03-06T08:40:07.000Z,21.10
2018-03-06T08:41:11.402Z,21.70
2018-03-06T08:42:17.901Z,21.80
2018-03-06T08:43:22.420Z,21.80
2018-03-06T08:44:27.921Z,21.80
2018-03-06T08:45:34.466Z,22.20
2018-03-06T08:46:38.943Z,22.00
2018-03-06T08:47:45.457Z,22.40
2018-03-06T08:48:49.960Z,21.10
2018-03-06T08:49:55.471Z,21.10
2018-03-06T08:51:01.983Z,22.30
2018-03-06T08:52:06.478Z,21.10
2018-03-06T08:53:13.002Z,21.10
2018-03-06T08:54:17.511Z,21.90
2018-03-06T08:55:23.023Z,21.80
2018-03-06T08:56:29.541Z,21.30
2018-03-06T08:57:34.038Z,21.70
2018-03-06T08:58:40.554Z,22.10
2018-03-06T08:59:45.070Z,22.70
2018-03-06T09:00:50.695Z,21.20
2018-03-06T09:01:57.107Z,22.30
2018-03-06T09:03:01.608Z,21.90
2018-03-06T09:04:08.119Z,21.40
2018-03-06T09:05:12.615Z,21.80
2018-03-06T09:06:18.136Z,21.40
2018-03-06T09:07:24.651Z,22.10
2018-03-06T09:08:29.153Z,21.60
2018-03-06T09:09:35.668Z,22.10
2018-03-06T09:10:40.189Z,22.00
2018-03-06T09:11:45.689Z,21.90
2018-03-06T09:12:52.204Z,22.20
2018-03-06T09:13:56.722Z,22.00
2018-03-06T09:15:03.228Z,22.00
2018-03-06T09:16:07.736Z,21.90
2018-03-06T09:17:13.250Z,22.70
2018-03-06T09:18:19.762Z,22.70
2018-03-06T09:19:24.273Z,22.80
2018-03-06T09:20:30.804Z,22.70
2018-03-06T09:21:35.298Z,22.60
2018-03-06T09:22:40.789Z,21.80
2018-03-06T09:23:47.325Z,22.00
2018-03-06T09:24:51.813Z,21.90
2018-03-06T09:25:58.352Z,22.00
2018-03-06T09:27:02.851Z,21.40
2018-03-06T09:28:08.349Z,21.90
2018-03-06T09:29:14.879Z,21.20
2018-03-06T09:30:19.386Z,21.60
2018-03-06T09:31:25.908Z,20.80
2018-03-06T09:32:30.397Z,20.60
2018-03-06T09:33:35.960Z,21.40
2018-03-06T09:34:42.448Z,21.50
2018-03-06T09:35:46.938Z,21.30
2018-03-06T09:36:53.503Z,21.40
2018-03-06T09:37:57.972Z,21.80
2018-03-06T09:39:03.472Z,21.50
2018-03-06T09:40:09.997Z,20.80
2018-03-06T09:41:14.506Z,21.50
2018-03-06T09:42:21.017Z,21.20
2018-03-06T09:43:25.525Z,21.80
2018-03-06T09:44:31.037Z,21.10
2018-03-06T09:45:37.558Z,20.70
2018-03-06T09:46:42.055Z,20.90
2018-03-06T09:47:48.588Z,21.10
2018-03-06T09:48:53.083Z,19.80
2018-03-06T09:49:58.594Z,19.40
2018-03-06T09:51:05.112Z,20.10
2018-03-06T09:52:09.625Z,19.20
2018-03-06T09:53:16.145Z,19.40
2018-03-06T09:54:20.661Z,18.20
2018-03-06T09:55:26.156Z,19.20
2018-03-06T09:56:32.679Z,19.50
2018-03-06T09:57:37.204Z,19.10
2018-03-06T09:58:43.711Z,19.70
2018-03-06T09:59:48.202Z,19.20
2018-03-06T10:00:53.736Z,18.50
2018-03-06T10:02:00.279Z,18.10
2018-03-06T10:03:04.797Z,17.70
2018-03-06T10:04:11.271Z,17.40
2018-03-06T10:05:15.780Z,18.20
2018-03-06T10:06:21.297Z,17.70
2018-03-06T10:07:27.798Z,17.70
2018-03-06T10:08:32.323Z,18.20
2018-03-06T10:09:38.847Z,17.00
2018-03-06T10:10:43.335Z,18.10
2018-03-06T10:11:48.851Z,17.20
2018-03-06T10:12:55.375Z,16.80
2018-03-06T10:13:59.876Z,18.40
2018-03-06T10:15:06.399Z,18.00
2018-03-06T10:16:10.909Z,16.90
2018-03-06T10:17:16.448Z,17.80
2018-03-06T10:18:22.938Z,17.50
2018-03-06T10:19:27.459Z,17.90
2018-03-06T10:20:33.978Z,17.70
2018-03-06T10:21:38.467Z,17.50
2018-03-06T10:22:43.990Z,18.10
2018-03-06T10:23:50.569Z,17.30
2018-03-06T10:24:55.033Z,17.40
2018-03-06T10:26:01.543Z,16.90
2018-03-06T10:27:06.051Z,17.60
2018-03-06T10:28:11.554Z,16.30
2018-03-06T10:29:18.076Z,17.30
2018-03-06T10:30:22.583Z,16.90
2018-03-06T10:31:29.108Z,17.00
2018-03-06T10:32:33.603Z,17.20
2018-03-06T10:33:39.118Z,16.90
2018-03-06T10:34:45.650Z,17.50
2018-03-06T10:35:50.145Z,18.00
2018-03-06T10:36:56.678Z,17.60
2018-03-06T10:38:01.185Z,17.60
2018-03-06T10:39:06.694Z,16.80
2018-03-06T10:40:13.212Z,16.60
2018-03-06T10:41:17.732Z,17.50
2018-03-06T10:42:24.245Z,16.60
2018-03-06T10:43:28.750Z,18.10
2018-03-06T10:44:34.263Z,17.30
2018-03-06T10:45:40.802Z,17.10
2018-03-06T10:46:45.289Z,17.60
2018-03-06T10:47:51.828Z,17.00
2018-03-06T10:48:56.321Z,17.20
2018-03-06T10:50:01.841Z,17.40
2018-03-06T10:51:08.355Z,17.40
2018-03-06T10:52:12.901Z,18.00
2018-03-06T10:53:19.405Z,17.60
2018-03-06T10:54:23.891Z,17.20
2018-03-06T10:55:29.417Z,17.00
2018-03-06T10:56:35.944Z,17.30
2018-03-06T10:57:40.443Z,17.10
2018-03-06T10:58:46.960Z,17.60
2018-03-06T10:59:51.462Z,16.90
2018-03-06T11:00:56.990Z,17.50
2018-03-06T11:02:03.503Z,18.00
2018-03-06T11:03:08.017Z,17.20
2018-03-06T11:04:14.526Z,16.80
2018-03-06T11:05:19.033Z,15.80
2018-03-06T11:06:24.643Z,16.10
2018-03-06T11:07:31.074Z,15.10
2018-03-06T11:08:35.596Z,16.30
2018-03-06T11:09:42.108Z,16.50
2018-03-06T11:10:46.612Z,16.00
2018-03-06T11:11:52.142Z,15.40
2018-03-06T11:12:58.647Z,15.70
2018-03-06T11:14:03.166Z,16.20
2018-03-06T11:15:09.672Z,16.20
2018-03-06T11:16:14.228Z,15.40
2018-03-06T11:17:19.712Z,18.10
2018-03-06T11:18:26.287Z,18.60
2018-03-06T11:19:30.764Z,17.00
2018-03-06T11:20:37.272Z,16.30
2018-03-06T11:21:41.866Z,18.30
2018-03-06T11:22:47.340Z,19.20
2018-03-06T11:23:53.821Z,19.50
2018-03-06T11:24:58.293Z,18.80
2018-03-06T11:26:04.818Z,17.80
2018-03-06T11:27:09.370Z,18.60
2018-03-06T11:28:14.835Z,18.90
2018-03-06T11:29:21.376Z,18.90
2018-03-06T11:30:25.873Z,19.40
2018-03-06T11:31:32.388Z,17.50
2018-03-06T11:32:36.903Z,17.90
2018-03-06T11:33:42.422Z,16.80
2018-03-06T11:34:48.946Z,16.30
2018-03-06T11:35:53.451Z,16.80
2018-03-06T11:36:59.972Z,16.60
2018-03-06T11:38:04.475Z,16.00
2018-03-06T11:39:09.981Z,17.00
2018-03-06T11:40:16.519Z,16.30
2018-03-06T11:41:21.019Z,16.40
2018-03-06T11:42:27.554Z,15.70
2018-03-06T11:43:32.045Z,16.00
2018-03-06T11:44:37.547Z,15.80
2018-03-06T11:45:44.081Z,15.50
2018-03-06T11:46:48.591Z,15.40
2018-03-06T11:47:55.122Z,14.20
2018-03-06T11:48:59.614Z,14.70
2018-03-06T11:50:05.131Z,14.90
2018-03-06T11:51:11.653Z,15.00
2018-03-06T11:52:16.163Z,14.30
2018-03-06T11:53:22.698Z,14.00
2018-03-06T11:54:27.184Z,14.80
2018-03-06T11:55:32.703Z,14.90
2018-03-06T11:56:39.322Z,15.80
2018-03-06T11:57:43.757Z,15.90
2018-03-06T11:58:50.259Z,15.70
2018-03-06T11:59:54.766Z,16.10
2018-03-06T12:01:00.296Z,16.10
2018-03-06T12:02:06.885Z,16.20
2018-03-06T12:03:11.340Z,16.10
2018-03-06T12:04:17.877Z,16.10
2018-03-06T12:05:22.363Z,16.60
2018-03-06T12:06:27.880Z,15.90
2018-03-06T12:07:34.402Z,15.80
2018-03-06T12:08:38.904Z,14.80
2018-03-06T12:09:45.417Z,15.30
2018-03-06T12:10:49.917Z,15.70
2018-03-06T12:11:55.436Z,15.40
2018-03-06T12:13:01.974Z,15.90
2018-03-06T12:14:06.473Z,15.30
2018-03-06T12:15:12.993Z,15.40
2018-03-06T12:16:17.502Z,16.10
2018-03-06T12:17:23.016Z,16.00
2018-03-06T12:18:29.548Z,17.00
2018-03-06T12:19:34.043Z,16.60
2018-03-06T12:20:40.576Z,16.00
2018-03-06T12:21:45.087Z,15.30
2018-03-06T12:22:50.584Z,14.30
2018-03-06T12:23:57.124Z,14.40
2018-03-06T12:25:01.615Z,15.70
2018-03-06T12:26:08.181Z,14.10
2018-03-06T12:27:12.684Z,14.60
2018-03-06T12:28:18.184Z,14.60
2018-03-06T12:29:24.823Z,14.60
2018-03-06T12:30:29.260Z,14.40
2018-03-06T12:31:35.734Z,15.00
2018-03-06T12:32:40.351Z,13.50
2018-03-06T12:33:45.751Z,13.30
2018-03-06T12:34:52.313Z,13.50
2018-03-06T12:35:56.801Z,14.10
2018-03-06T12:37:03.314Z,13.70
2018-03-06T12:38:07.813Z,13.80
2018-03-06T12:39:13.355Z,14.10
2018-03-06T12:40:19.890Z,14.00
2018-03-06T12:41:24.366Z,13.60
2018-03-06T12:42:30.897Z,13.00
2018-03-06T12:43:35.415Z,13.70
2018-03-06T12:44:40.905Z,13.20
2018-03-06T12:45:47.489Z,13.20
2018-03-06T12:46:51.941Z,13.20
2018-03-06T12:47:58.482Z,12.90
2018-03-06T12:49:02.978Z,12.80
2018-03-06T12:50:08.507Z,13.00
2018-03-06T12:51:15.030Z,12.90
2018-03-06T12:52:19.539Z,12.80
2018-03-06T12:53:26.054Z,12.50
2018-03-06T12:54:30.572Z,12.70
2018-03-06T12:55:36.084Z,12.80
2018-03-06T12:56:42.604Z,12.60
2018-03-06T12:57:47.108Z,12.90
2018-03-06T12:58:53.648Z,13.90
2018-03-06T12:59:58.175Z,14.20
2018-03-06T13:01:03.665Z,14.10
2018-03-06T13:02:10.208Z,13.90
2018-03-06T13:03:14.729Z,14.30
2018-03-06T13:04:21.230Z,13.70
2018-03-06T13:05:25.737Z,14.30
2018-03-06T13:06:31.251Z,14.10
2018-03-06T13:07:37.790Z,14.20
2018-03-06T13:08:42.297Z,15.70
2018-03-06T13:09:48.836Z,17.50
2018-03-06T13:10:53.328Z,15.80
2018-03-06T13:11:58.840Z,16.00
2018-03-06T13:13:05.369Z,15.00
2018-03-06T13:14:09.881Z,14.80
2018-03-06T13:15:16.413Z,15.90
2018-03-06T13:16:20.932Z,15.90
2018-03-06T13:17:26.430Z,15.60
2018-03-06T13:18:32.965Z,16.00
2018-03-06T13:19:37.489Z,15.60
2018-03-06T13:20:44.005Z,15.80
2018-03-06T13:21:48.570Z,15.20
2018-03-06T13:22:54.028Z,15.30
2018-03-06T13:24:00.549Z,15.70
2018-03-06T13:25:05.061Z,16.10
2018-03-06T13:26:11.595Z,15.90
2018-03-06T13:27:16.125Z,15.90
2018-03-06T13:28:21.625Z,15.50
2018-03-06T13:29:28.199Z,16.20
2018-03-06T13:30:32.679Z,14.00
2018-03-06T13:31:39.205Z,15.20
2018-03-06T13:32:43.711Z,14.10
2018-03-06T13:33:49.268Z,13.30
2018-03-06T13:34:55.767Z,13.90
2018-03-06T13:36:00.250Z,13.30
2018-03-06T13:37:06.810Z,13.50
2018-03-06T13:38:11.291Z,13.40
2018-03-06T13:39:16.827Z,13.90
2018-03-06T13:40:23.333Z,14.40
2018-03-06T13:41:27.872Z,13.30
2018-03-06T13:42:34.387Z,13.30
2018-03-06T13:43:38.884Z,13.70
2018-03-06T13:44:44.411Z,13.40
2018-03-06T13:45:50.930Z,13.80
2018-03-06T13:46:55.456Z,13.30
2018-03-06T13:48:01.988Z,13.40
2018-03-06T13:49:06.493Z,13.20
2018-03-06T13:50:12.009Z,13.10
2018-03-06T13:51:18.543Z,13.30
2018-03-06T13:52:23.100Z,13.00
2018-03-06T13:53:29.588Z,13.00
2018-03-06T13:54:34.100Z,13.40
2018-03-06T13:55:39.605Z,13.50
2018-03-06T13:56:46.145Z,13.00
2018-03-06T13:57:50.685Z,13.10
2018-03-06T13:58:57.180Z,13.70
2018-03-06T14:00:01.706Z,12.60
2018-03-06T14:01:07.367Z,12.70
2018-03-06T14:02:13.796Z,12.80
2018-03-06T14:03:18.247Z,12.60
2018-03-06T14:04:24.794Z,12.60
2018-03-06T14:05:29.319Z,12.40
2018-03-06T14:06:34.819Z,12.90
2018-03-06T14:07:41.348Z,12.70